Time;durP1;ratioP1;P1;durP2;ratioP2;P2;SDS_P1;SDS_P2;PMS_P1;PMS_P2;Temp;Humidity;BMP_temperature;BMP_pressure;BME280_temperature;BME280_humidity;BME280_pressure;Samples;Min_cycle;Max_cycle;Signal;HPM_P1;HPM_P2
2021/08/02 00:00:28;;;;;;;1.50;1.50;;;13.70;99.90;;;;;;492347;241;28148;-70
2021/08/02 00:02:30;;;;;;;1.30;1.27;;;13.80;99.90;;;;;;492282;241;28484;-70
2021/08/02 00:04:31;;;;;;;1.87;1.43;;;13.70;99.90;;;;;;492348;241;28248;-70
2021/08/02 00:06:32;;;;;;;1.47;1.47;;;13.70;99.90;;;;;;492296;241;28185;-70
2021/08/02 00:08:33;;;;;;;1.70;1.60;;;13.80;99.90;;;;;;492313;241;28203;-70
2021/08/02 00:10:35;;;;;;;1.83;1.60;;;13.90;99.90;;;;;;492334;241;28495;-70
2021/08/02 00:12:36;;;;;;;1.67;1.57;;;13.90;99.90;;;;;;492307;241;28502;-70
2021/08/02 00:14:37;;;;;;;1.80;1.70;;;13.80;99.90;;;;;;492326;240;28215;-70
2021/08/02 00:16:39;;;;;;;1.57;1.50;;;13.90;99.90;;;;;;492346;241;28676;-70
2021/08/02 00:18:40;;;;;;;3.13;1.87;;;13.90;99.90;;;;;;492343;241;28998;-70
2021/08/02 00:20:41;;;;;;;1.80;1.70;;;13.90;99.90;;;;;;492358;241;28773;-70
2021/08/02 00:22:42;;;;;;;1.73;1.63;;;13.90;99.90;;;;;;492371;241;29307;-70
2021/08/02 00:24:43;;;;;;;1.43;1.33;;;13.90;99.90;;;;;;492330;241;29205;-71
2021/08/02 00:26:45;;;;;;;1.97;1.63;;;13.90;99.90;;;;;;492340;241;28266;-70
2021/08/02 00:28:46;;;;;;;1.50;1.40;;;13.90;99.90;;;;;;492315;241;28483;-70
2021/08/02 00:30:47;;;;;;;1.70;1.60;;;13.90;99.90;;;;;;492337;240;28767;-71
2021/08/02 00:32:48;;;;;;;2.63;1.60;;;13.90;99.90;;;;;;492314;241;28483;-72
2021/08/02 00:34:50;;;;;;;1.60;1.50;;;13.90;99.90;;;;;;492315;241;28150;-72
2021/08/02 00:36:51;;;;;;;1.43;1.33;;;13.90;99.90;;;;;;492315;241;28277;-70
2021/08/02 00:38:52;;;;;;;1.50;1.40;;;13.80;99.90;;;;;;492306;241;28830;-71
2021/08/02 00:40:53;;;;;;;1.60;1.50;;;13.90;99.90;;;;;;492323;241;28671;-70
2021/08/02 00:42:55;;;;;;;1.50;1.50;;;13.90;99.90;;;;;;492280;241;28768;-72
2021/08/02 00:44:56;;;;;;;1.43;1.43;;;13.90;99.90;;;;;;492304;241;29353;-71
2021/08/02 00:46:57;;;;;;;1.50;1.40;;;13.90;99.90;;;;;;492300;241;29151;-71
2021/08/02 00:48:58;;;;;;;1.70;1.60;;;13.90;99.90;;;;;;492309;241;28893;-70
2021/08/02 00:51:00;;;;;;;1.43;1.33;;;13.80;99.90;;;;;;492314;241;28434;-69
2021/08/02 00:53:01;;;;;;;1.60;1.50;;;13.80;99.90;;;;;;492317;241;28886;-70
2021/08/02 00:55:02;;;;;;;1.70;1.60;;;13.80;99.90;;;;;;492288;241;28190;-70
2021/08/02 00:57:03;;;;;;;1.90;1.80;;;13.80;99.90;;;;;;492199;241;28202;-70
2021/08/02 00:59:05;;;;;;;1.63;1.53;;;13.80;99.90;;;;;;492321;241;28412;-70
2021/08/02 01:01:06;;;;;;;1.30;1.30;;;13.80;99.90;;;;;;492306;241;28356;-71
2021/08/02 01:03:07;;;;;;;1.60;1.50;;;13.80;99.90;;;;;;492292;241;28528;-71
2021/08/02 01:05:08;;;;;;;1.70;1.60;;;13.90;99.90;;;;;;492318;241;28704;-70
2021/08/02 01:07:10;;;;;;;1.50;1.40;;;13.80;99.90;;;;;;492288;241;28697;-70
2021/08/02 01:09:11;;;;;;;1.60;1.50;;;13.70;99.90;;;;;;492327;241;28888;-70
2021/08/02 01:11:12;;;;;;;1.63;1.50;;;13.70;99.90;;;;;;492283;241;29362;-70
2021/08/02 01:13:13;;;;;;;1.60;1.50;;;13.70;99.90;;;;;;492329;241;29267;-70
2021/08/02 01:15:15;;;;;;;1.80;1.70;;;13.70;99.90;;;;;;492312;241;29191;-70
2021/08/02 01:17:16;;;;;;;1.70;1.60;;;13.70;99.90;;;;;;492316;241;28377;-70
2021/08/02 01:19:17;;;;;;;1.90;1.80;;;13.70;99.90;;;;;;492314;241;28193;-70
2021/08/02 01:21:21;;;;;;;2.90;1.70;;;13.80;99.90;;;;;;492313;241;28467;-70
2021/08/02 01:23:23;;;;;;;2.00;1.90;;;13.70;99.90;;;;;;492323;237;28484;-70
2021/08/02 01:25:24;;;;;;;1.57;1.47;;;13.70;99.90;;;;;;492324;240;28792;-70
2021/08/02 01:27:25;;;;;;;1.97;1.87;;;13.70;99.90;;;;;;492163;241;29320;-71
2021/08/02 01:29:26;;;;;;;1.80;1.70;;;13.70;99.90;;;;;;492328;241;28724;-70
2021/08/02 01:31:28;;;;;;;2.00;1.80;;;13.70;99.90;;;;;;492325;241;29361;-70
2021/08/02 01:33:29;;;;;;;1.60;1.50;;;13.70;99.90;;;;;;492325;241;28626;-70
2021/08/02 01:35:30;;;;;;;1.73;1.63;;;13.70;99.90;;;;;;492313;241;28504;-70
2021/08/02 01:37:31;;;;;;;2.00;1.77;;;13.70;99.90;;;;;;492340;241;28288;-72
2021/08/02 01:39:35;;;;;;;4.10;1.80;;;13.70;99.90;;;;;;492345;241;28789;-70
2021/08/02 01:41:37;;;;;;;1.63;1.47;;;13.70;99.90;;;;;;492318;241;28223;-71
2021/08/02 01:43:38;;;;;;;1.70;1.60;;;13.70;99.90;;;;;;492327;241;28167;-70
2021/08/02 01:45:39;;;;;;;1.93;1.83;;;13.70;99.90;;;;;;492317;241;28445;-71
2021/08/02 01:47:40;;;;;;;1.80;1.70;;;13.70;99.90;;;;;;492314;241;28868;-70
2021/08/02 01:49:42;;;;;;;1.70;1.60;;;13.70;99.90;;;;;;492300;241;29710;-72
2021/08/02 01:51:43;;;;;;;1.70;1.60;;;13.70;99.90;;;;;;492312;241;28834;-72
2021/08/02 01:53:44;;;;;;;1.80;1.70;;;13.70;99.90;;;;;;492349;241;28916;-69
2021/08/02 01:55:45;;;;;;;2.00;1.90;;;13.80;99.90;;;;;;492338;241;28452;-69
2021/08/02 01:57:47;;;;;;;1.87;1.77;;;13.70;99.90;;;;;;492333;241;28510;-72
2021/08/02 01:59:48;;;;;;;1.87;1.77;;;13.70;99.90;;;;;;492346;241;28860;-69
2021/08/02 02:01:49;;;;;;;2.20;2.10;;;13.80;99.90;;;;;;492346;241;28361;-69
2021/08/02 02:03:50;;;;;;;1.90;1.77;;;13.80;99.90;;;;;;492342;241;28376;-70
2021/08/02 02:05:52;;;;;;;2.50;2.30;;;13.70;99.90;;;;;;492341;241;28288;-70
2021/08/02 02:07:53;;;;;;;2.50;1.80;;;13.80;99.90;;;;;;492222;241;28181;-69
2021/08/02 02:09:54;;;;;;;1.77;1.67;;;13.80;99.90;;;;;;492334;241;28151;-70
2021/08/02 02:11:56;;;;;;;1.63;1.50;;;13.80;99.90;;;;;;492322;241;29322;-71
2021/08/02 02:13:57;;;;;;;1.77;1.67;;;13.70;99.90;;;;;;492308;241;29268;-70
2021/08/02 02:15:58;;;;;;;1.80;1.70;;;13.70;99.90;;;;;;492330;241;28698;-71
2021/08/02 02:17:59;;;;;;;1.77;1.67;;;13.80;99.90;;;;;;492329;241;28484;-71
2021/08/02 02:20:00;;;;;;;3.03;1.73;;;13.70;99.90;;;;;;492305;241;28413;-71
2021/08/02 02:22:02;;;;;;;1.90;1.80;;;13.70;99.90;;;;;;492333;240;28637;-71
2021/08/02 02:24:03;;;;;;;2.90;2.00;;;13.70;99.90;;;;;;492324;241;28426;-72
2021/08/02 02:26:04;;;;;;;1.80;1.70;;;13.70;99.90;;;;;;492331;241;28478;-70
2021/08/02 02:28:05;;;;;;;1.80;1.70;;;13.70;99.90;;;;;;492316;241;30329;-71
2021/08/02 02:30:07;;;;;;;1.73;1.63;;;13.70;99.90;;;;;;492376;241;28975;-71
2021/08/02 02:32:08;;;;;;;1.80;1.70;;;13.70;99.90;;;;;;492341;241;28392;-70
2021/08/02 02:34:09;;;;;;;1.93;1.83;;;13.70;99.90;;;;;;492334;241;28273;-71
2021/08/02 02:36:10;;;;;;;1.67;1.57;;;13.80;99.90;;;;;;492327;241;28978;-70
2021/08/02 02:38:12;;;;;;;1.73;1.63;;;13.80;99.90;;;;;;492329;241;28900;-71
2021/08/02 02:40:13;;;;;;;1.90;1.80;;;13.80;99.90;;;;;;492325;241;28871;-71
2021/08/02 02:42:14;;;;;;;1.80;1.70;;;13.70;99.90;;;;;;492337;237;28950;-70
2021/08/02 02:44:15;;;;;;;1.57;1.47;;;13.70;99.90;;;;;;492327;240;28487;-70
2021/08/02 02:46:17;;;;;;;1.57;1.47;;;13.60;99.90;;;;;;492340;241;28312;-70
2021/08/02 02:48:18;;;;;;;2.00;1.80;;;13.60;99.90;;;;;;492319;241;28409;-70
2021/08/02 02:50:19;;;;;;;1.90;1.80;;;13.60;99.90;;;;;;492344;241;28628;-71
2021/08/02 02:52:20;;;;;;;1.70;1.60;;;13.60;99.90;;;;;;492322;241;28448;-70
2021/08/02 02:54:22;;;;;;;2.27;1.70;;;13.60;99.90;;;;;;492343;241;28416;-70
2021/08/02 02:56:23;;;;;;;1.70;1.60;;;13.60;99.90;;;;;;492312;241;28378;-70
2021/08/02 02:58:24;;;;;;;1.83;1.73;;;13.60;99.90;;;;;;492354;241;28236;-70
2021/08/02 03:00:25;;;;;;;1.83;1.73;;;13.50;99.90;;;;;;492343;238;28166;-69
2021/08/02 03:02:27;;;;;;;2.00;1.80;;;13.60;99.90;;;;;;492344;241;28808;-70
2021/08/02 03:04:28;;;;;;;1.93;1.80;;;13.50;99.90;;;;;;492352;241;29264;-70
2021/08/02 03:06:29;;;;;;;1.63;1.53;;;13.50;99.90;;;;;;492361;240;28692;-69
2021/08/02 03:08:31;;;;;;;2.17;1.97;;;13.50;99.90;;;;;;492367;241;28375;-70
2021/08/02 03:10:32;;;;;;;1.87;1.77;;;13.50;99.90;;;;;;492348;241;28294;-70
2021/08/02 03:12:34;;;;;;;1.90;1.80;;;13.50;99.90;;;;;;492348;241;28250;-70
2021/08/02 03:14:34;;;;;;;1.80;1.70;;;13.60;99.90;;;;;;492293;241;28169;-70
2021/08/02 03:16:36;;;;;;;3.17;2.17;;;13.60;99.90;;;;;;492346;241;28257;-70
2021/08/02 03:18:37;;;;;;;1.90;1.80;;;13.60;99.90;;;;;;492342;241;28806;-70
2021/08/02 03:20:38;;;;;;;2.10;1.97;;;13.60;99.90;;;;;;492352;241;28633;-69
2021/08/02 03:22:39;;;;;;;2.33;2.23;;;13.70;99.90;;;;;;492355;241;28175;-69
2021/08/02 03:24:41;;;;;;;2.60;2.20;;;13.70;99.90;;;;;;492328;241;28772;-70
2021/08/02 03:26:42;;;;;;;2.13;1.90;;;13.60;99.90;;;;;;492296;241;28935;-70
2021/08/02 03:28:44;;;;;;;2.13;2.03;;;;;;;;;;492254;241;28740;-70
2021/08/02 03:30:45;;;;;;;2.00;1.90;;;13.60;99.90;;;;;;492350;240;26675;-70
2021/08/02 03:32:47;;;;;;;2.00;1.90;;;13.60;99.90;;;;;;492336;241;28412;-70
2021/08/02 03:34:48;;;;;;;2.43;2.23;;;13.70;99.90;;;;;;492343;241;28136;-69
2021/08/02 03:36:49;;;;;;;2.70;2.50;;;13.70;99.90;;;;;;492110;241;28801;-70
2021/08/02 03:38:50;;;;;;;2.53;2.20;;;13.60;99.90;;;;;;492327;241;28914;-69
2021/08/02 03:40:52;;;;;;;2.20;2.10;;;13.70;99.90;;;;;;492323;241;28670;-72
2021/08/02 03:42:53;;;;;;;2.50;2.30;;;13.70;99.90;;;;;;492319;241;28660;-71
2021/08/02 03:44:54;;;;;;;1.93;1.83;;;13.60;99.90;;;;;;492317;241;28242;-70
2021/08/02 03:46:55;;;;;;;2.20;2.10;;;13.50;99.90;;;;;;492333;241;28356;-70
2021/08/02 03:48:57;;;;;;;2.30;2.20;;;13.60;99.90;;;;;;492289;241;28637;-71
2021/08/02 03:50:58;;;;;;;2.53;2.33;;;13.60;99.90;;;;;;492335;241;28414;-69
2021/08/02 03:53:00;;;;;;;2.33;2.20;;;13.60;99.90;;;;;;492320;241;28409;-71
2021/08/02 03:55:00;;;;;;;3.37;2.47;;;13.50;99.90;;;;;;492329;241;28264;-70
2021/08/02 03:57:02;;;;;;;2.40;2.30;;;13.60;99.90;;;;;;492323;237;28711;-70
2021/08/02 03:59:03;;;;;;;3.17;2.60;;;13.60;99.90;;;;;;492306;241;28339;-70
2021/08/02 04:01:04;;;;;;;2.20;2.10;;;13.50;99.90;;;;;;492307;241;28468;-70
2021/08/02 04:03:06;;;;;;;3.10;2.27;;;13.50;99.90;;;;;;492317;241;29023;-70
2021/08/02 04:05:07;;;;;;;2.83;2.63;;;13.50;99.90;;;;;;492305;241;28725;-69
2021/08/02 04:07:08;;;;;;;2.93;2.63;;;13.50;99.90;;;;;;492306;241;28876;-69
2021/08/02 04:09:10;;;;;;;3.07;2.87;;;13.40;99.90;;;;;;492291;241;29043;-69
2021/08/02 04:11:10;;;;;;;2.63;2.43;;;13.40;99.90;;;;;;492314;241;28467;-70
2021/08/02 04:13:15;;;;;;;2.70;2.50;;;13.40;99.90;;;;;;492321;241;28113;-70
2021/08/02 04:15:13;;;;;;;2.50;2.33;;;13.30;99.90;;;;;;491428;241;28503;-69
2021/08/02 04:17:14;;;;;;;2.60;2.40;;;13.30;99.90;;;;;;492252;241;28184;-70
2021/08/02 04:19:16;;;;;;;2.60;2.40;;;13.40;99.90;;;;;;492300;241;28697;-71
2021/08/02 04:21:17;;;;;;;2.50;2.37;;;13.30;99.90;;;;;;492310;237;28356;-70
2021/08/02 04:23:18;;;;;;;2.80;2.47;;;13.30;99.90;;;;;;492296;241;28194;-70
2021/08/02 04:25:19;;;;;;;2.53;2.33;;;13.30;99.90;;;;;;492307;241;28805;-70
2021/08/02 04:27:21;;;;;;;3.00;2.80;;;13.20;99.90;;;;;;492311;241;28958;-70
2021/08/02 04:29:22;;;;;;;2.73;2.53;;;13.20;99.90;;;;;;492333;241;28934;-71
2021/08/02 04:31:23;;;;;;;2.50;2.30;;;13.20;99.90;;;;;;492333;241;28590;-70
2021/08/02 04:33:24;;;;;;;2.70;2.50;;;13.20;99.90;;;;;;492321;241;28289;-70
2021/08/02 04:35:26;;;;;;;2.57;2.30;;;13.20;99.90;;;;;;492344;241;28240;-70
2021/08/02 04:37:27;;;;;;;2.50;2.40;;;13.20;99.90;;;;;;492317;241;28842;-71
2021/08/02 04:39:28;;;;;;;2.57;2.37;;;13.20;99.90;;;;;;492358;241;28526;-70
2021/08/02 04:41:29;;;;;;;2.37;2.27;;;13.30;99.90;;;;;;492355;241;28154;-70
2021/08/02 04:43:32;;;;;;;8.53;2.27;;;;;;;;;;492341;241;28385;-70
2021/08/02 04:45:33;;;;;;;3.23;3.00;;;13.40;99.90;;;;;;492318;241;26413;-70
2021/08/02 04:47:34;;;;;;;2.30;2.20;;;13.40;99.90;;;;;;492339;241;28296;-70
2021/08/02 04:49:35;;;;;;;2.53;2.43;;;13.50;99.90;;;;;;492323;241;28219;-70
2021/08/02 04:51:37;;;;;;;2.20;2.10;;;13.50;99.90;;;;;;492309;241;28179;-70
2021/08/02 04:53:38;;;;;;;2.90;2.70;;;13.50;99.90;;;;;;492315;241;28146;-70
2021/08/02 04:55:39;;;;;;;2.70;2.50;;;13.60;99.90;;;;;;492304;241;28236;-70
2021/08/02 04:57:40;;;;;;;2.47;2.30;;;13.50;99.90;;;;;;492342;241;28175;-70
2021/08/02 04:59:42;;;;;;;2.50;2.30;;;13.60;99.90;;;;;;492322;241;28199;-71
2021/08/02 05:01:43;;;;;;;2.87;2.67;;;13.70;99.90;;;;;;492287;241;28080;-70
2021/08/02 05:03:44;;;;;;;2.70;2.50;;;13.70;99.90;;;;;;492308;241;28887;-70
2021/08/02 05:05:45;;;;;;;2.50;2.40;;;13.70;99.90;;;;;;492101;241;28851;-70
2021/08/02 05:07:47;;;;;;;2.93;2.67;;;13.70;99.90;;;;;;492291;241;28742;-71
2021/08/02 05:09:48;;;;;;;2.43;2.30;;;13.70;99.90;;;;;;492253;240;28294;-71
2021/08/02 05:11:49;;;;;;;2.73;2.53;;;13.80;99.90;;;;;;492325;241;28194;-70
2021/08/02 05:13:50;;;;;;;2.60;2.07;;;13.80;99.90;;;;;;492302;241;28266;-70
2021/08/02 05:15:52;;;;;;;2.30;2.20;;;13.80;99.90;;;;;;492306;241;28190;-71
2021/08/02 05:17:53;;;;;;;2.20;2.10;;;13.80;99.90;;;;;;492318;240;28495;-71
2021/08/02 05:19:54;;;;;;;2.67;2.47;;;13.80;99.90;;;;;;492299;241;28554;-70
2021/08/02 05:21:55;;;;;;;2.40;2.30;;;13.80;99.90;;;;;;492299;241;28310;-70
2021/08/02 05:23:57;;;;;;;2.87;2.60;;;13.80;99.90;;;;;;492247;241;28131;-70
2021/08/02 05:25:58;;;;;;;3.03;2.83;;;13.80;99.90;;;;;;492268;241;28149;-71
2021/08/02 05:27:59;;;;;;;2.50;2.30;;;13.80;99.90;;;;;;492313;241;28679;-69
2021/08/02 05:30:00;;;;;;;2.60;2.40;;;13.90;99.90;;;;;;492300;241;29090;-70
2021/08/02 05:32:02;;;;;;;2.67;2.47;;;13.80;99.90;;;;;;492289;241;28903;-71
2021/08/02 05:34:03;;;;;;;2.60;2.40;;;13.90;99.90;;;;;;492279;241;28516;-71
2021/08/02 05:36:04;;;;;;;2.70;2.50;;;13.90;99.90;;;;;;492256;241;28214;-70
2021/08/02 05:38:06;;;;;;;2.33;2.20;;;13.90;99.90;;;;;;492248;241;28332;-70
2021/08/02 05:40:07;;;;;;;2.93;2.67;;;13.90;99.90;;;;;;492244;238;28443;-70
2021/08/02 05:42:08;;;;;;;3.10;2.80;;;14.00;99.90;;;;;;492225;241;28413;-70
2021/08/02 05:44:09;;;;;;;2.33;2.23;;;14.00;99.90;;;;;;492277;241;28270;-70
2021/08/02 05:46:11;;;;;;;2.70;2.50;;;14.10;99.90;;;;;;492299;241;28468;-70
2021/08/02 05:48:12;;;;;;;3.50;2.60;;;14.20;99.90;;;;;;492275;241;28433;-70
2021/08/02 05:50:13;;;;;;;2.53;2.37;;;14.30;99.90;;;;;;492248;241;28742;-72
2021/08/02 05:52:14;;;;;;;2.40;2.30;;;14.30;99.90;;;;;;492165;241;29212;-72
2021/08/02 05:54:16;;;;;;;2.30;2.20;;;14.30;99.90;;;;;;492312;241;29241;-69
2021/08/02 05:56:17;;;;;;;2.90;2.70;;;14.30;99.90;;;;;;492319;241;29246;-72
2021/08/02 05:58:18;;;;;;;3.00;2.80;;;14.30;99.90;;;;;;492335;241;29188;-73
2021/08/02 06:00:19;;;;;;;3.07;2.87;;;14.40;99.90;;;;;;492335;241;28869;-71
2021/08/02 06:02:21;;;;;;;3.80;3.50;;;14.40;99.90;;;;;;492322;241;28781;-72
2021/08/02 06:04:22;;;;;;;3.37;3.07;;;14.40;99.90;;;;;;492317;241;28807;-70
2021/08/02 06:06:23;;;;;;;3.03;2.83;;;14.40;99.90;;;;;;492287;241;28742;-70
2021/08/02 06:08:24;;;;;;;2.90;2.70;;;14.40;99.90;;;;;;492311;241;28814;-70
2021/08/02 06:10:26;;;;;;;3.30;3.10;;;14.40;99.90;;;;;;492319;241;28793;-70
2021/08/02 06:12:27;;;;;;;3.83;3.53;;;14.40;99.90;;;;;;492309;240;28803;-70
2021/08/02 06:14:28;;;;;;;3.43;3.13;;;14.50;99.90;;;;;;492302;241;28747;-70
2021/08/02 06:16:29;;;;;;;3.23;3.03;;;14.50;99.90;;;;;;492297;241;28914;-70
2021/08/02 06:18:31;;;;;;;6.33;3.30;;;14.50;99.90;;;;;;492317;241;29445;-70
2021/08/02 06:20:32;;;;;;;4.33;3.47;;;14.50;99.90;;;;;;492284;241;29328;-71
2021/08/02 06:22:33;;;;;;;4.07;3.67;;;14.40;99.90;;;;;;492302;241;29417;-72
2021/08/02 06:24:34;;;;;;;3.67;3.40;;;14.50;99.90;;;;;;492313;241;28852;-72
2021/08/02 06:26:37;;;;;;;4.53;4.13;;;14.50;99.90;;;;;;492319;241;28806;-69
2021/08/02 06:28:37;;;;;;;5.30;3.43;;;14.60;99.90;;;;;;492280;241;28826;-69
2021/08/02 06:30:38;;;;;;;3.87;3.47;;;14.60;99.90;;;;;;492308;241;28779;-69
2021/08/02 06:32:39;;;;;;;5.10;3.90;;;14.60;99.90;;;;;;492319;241;28824;-69
2021/08/02 06:34:41;;;;;;;4.20;3.90;;;14.60;99.90;;;;;;492305;241;28771;-70
2021/08/02 06:36:42;;;;;;;3.97;3.67;;;14.60;99.90;;;;;;492308;241;28826;-69
2021/08/02 06:38:43;;;;;;;4.23;3.90;;;14.70;99.90;;;;;;492324;241;28799;-69
2021/08/02 06:40:44;;;;;;;4.40;4.10;;;14.70;99.90;;;;;;492319;241;28767;-72
2021/08/02 06:42:46;;;;;;;4.47;3.83;;;14.70;99.90;;;;;;492328;241;29085;-69
2021/08/02 06:44:47;;;;;;;5.00;4.60;;;14.70;99.90;;;;;;492294;241;29394;-69
2021/08/02 06:46:48;;;;;;;4.70;4.30;;;14.70;99.90;;;;;;492337;241;29308;-72
2021/08/02 06:48:49;;;;;;;5.47;4.30;;;14.70;99.90;;;;;;492345;241;28813;-72
2021/08/02 06:50:51;;;;;;;5.00;4.20;;;14.70;99.90;;;;;;492309;241;28464;-72
2021/08/02 06:52:52;;;;;;;4.80;4.40;;;14.70;99.90;;;;;;492333;241;28982;-71
2021/08/02 06:54:53;;;;;;;4.30;4.00;;;14.70;99.90;;;;;;492330;241;28894;-69
2021/08/02 06:56:54;;;;;;;4.90;4.50;;;14.70;99.90;;;;;;492316;240;28831;-69
2021/08/02 06:58:56;;;;;;;4.60;4.20;;;14.70;99.90;;;;;;492337;241;28817;-72
2021/08/02 07:00:57;;;;;;;5.23;4.83;;;14.70;99.90;;;;;;492345;241;28791;-70
2021/08/02 07:02:58;;;;;;;4.93;4.57;;;14.70;99.90;;;;;;492315;241;28798;-72
2021/08/02 07:05:00;;;;;;;4.73;4.33;;;14.70;99.90;;;;;;492319;241;28793;-70
2021/08/02 07:07:01;;;;;;;4.73;4.43;;;14.70;99.90;;;;;;491636;241;29358;-71
2021/08/02 07:09:02;;;;;;;4.77;4.23;;;14.80;99.90;;;;;;492349;241;29352;-71
2021/08/02 07:11:03;;;;;;;4.90;4.50;;;14.90;99.90;;;;;;492324;241;29290;-69
2021/08/02 07:13:04;;;;;;;4.70;4.30;;;15.00;99.90;;;;;;492312;241;28822;-69
2021/08/02 07:15:06;;;;;;;4.20;3.90;;;15.00;99.90;;;;;;492304;238;28686;-69
2021/08/02 07:17:07;;;;;;;4.67;4.33;;;15.10;99.90;;;;;;492275;241;28892;-69
2021/08/02 07:19:08;;;;;;;5.00;4.60;;;15.10;99.90;;;;;;492279;241;28739;-69
2021/08/02 07:21:09;;;;;;;4.77;4.40;;;15.20;99.90;;;;;;492300;241;28676;-69
2021/08/02 07:23:11;;;;;;;4.53;4.13;;;15.20;99.90;;;;;;492299;237;28479;-71
2021/08/02 07:25:13;;;;;;;4.47;4.10;;;15.30;99.90;;;;;;492328;241;28776;-72
2021/08/02 07:27:13;;;;;;;5.87;4.03;;;15.30;99.90;;;;;;492250;241;28790;-72
2021/08/02 07:29:14;;;;;;;5.13;4.70;;;15.40;99.90;;;;;;492329;241;28906;-72
2021/08/02 07:31:16;;;;;;;4.67;4.30;;;15.50;99.90;;;;;;492316;241;29227;-72
2021/08/02 07:33:17;;;;;;;5.00;4.60;;;15.50;99.90;;;;;;492306;241;29267;-72
2021/08/02 07:35:18;;;;;;;4.03;3.73;;;15.50;99.90;;;;;;492319;241;30116;-71
2021/08/02 07:37:19;;;;;;;4.13;3.83;;;15.50;99.90;;;;;;492325;241;28795;-71
2021/08/02 07:39:21;;;;;;;4.50;4.10;;;15.50;99.90;;;;;;492350;241;28807;-71
2021/08/02 07:41:23;;;;;;;4.87;4.47;;;15.40;99.90;;;;;;492354;241;28772;-71
2021/08/02 07:43:23;;;;;;;5.33;4.50;;;15.40;99.90;;;;;;492280;241;28881;-72
2021/08/02 07:45:24;;;;;;;4.60;4.20;;;15.50;99.90;;;;;;492334;241;29266;-71
2021/08/02 07:47:26;;;;;;;4.97;4.50;;;15.50;99.90;;;;;;492329;241;28768;-72
2021/08/02 07:49:27;;;;;;;4.33;3.93;;;15.50;99.90;;;;;;492322;241;28810;-72
2021/08/02 07:51:30;;;;;;;4.33;4.03;;;15.50;99.90;;;;;;492338;241;28774;-72
2021/08/02 07:53:29;;;;;;;5.03;4.63;;;15.60;99.90;;;;;;492238;241;28907;-72
2021/08/02 07:55:31;;;;;;;4.03;3.73;;;15.70;99.90;;;;;;492323;241;29359;-72
2021/08/02 07:57:32;;;;;;;3.90;3.50;;;15.80;99.90;;;;;;492330;241;29227;-72
2021/08/02 07:59:34;;;;;;;3.80;3.60;;;16.00;99.90;;;;;;492328;241;29399;-72
2021/08/02 08:01:34;;;;;;;3.37;3.17;;;16.00;99.90;;;;;;492301;241;28772;-70
2021/08/02 08:03:36;;;;;;;3.73;3.40;;;16.10;99.90;;;;;;492291;241;28798;-70
2021/08/02 08:05:37;;;;;;;4.20;3.80;;;16.20;99.90;;;;;;492297;241;28806;-70
2021/08/02 08:07:38;;;;;;;4.37;3.80;;;16.40;99.90;;;;;;492314;241;28804;-70
2021/08/02 08:09:39;;;;;;;3.90;3.60;;;16.30;99.90;;;;;;492326;241;28802;-70
2021/08/02 08:11:41;;;;;;;4.10;3.80;;;16.40;99.90;;;;;;492321;241;28688;-69
2021/08/02 08:13:42;;;;;;;7.13;4.07;;;16.50;99.90;;;;;;492302;241;28819;-70
2021/08/02 08:15:43;;;;;;;4.77;4.10;;;16.60;99.90;;;;;;492311;241;28790;-70
2021/08/02 08:17:44;;;;;;;3.77;3.50;;;16.60;99.90;;;;;;492330;241;28918;-70
2021/08/02 08:19:46;;;;;;;4.33;3.50;;;16.80;99.90;;;;;;492308;241;29303;-70
2021/08/02 08:21:47;;;;;;;4.30;3.10;;;16.80;99.90;;;;;;492310;241;29246;-70
2021/08/02 08:23:48;;;;;;;4.10;3.70;;;16.90;99.90;;;;;;492311;241;29277;-70
2021/08/02 08:25:49;;;;;;;3.10;2.90;;;16.90;99.90;;;;;;492313;237;29407;-71
2021/08/02 08:27:51;;;;;;;3.73;3.43;;;17.10;99.90;;;;;;492326;241;28710;-71
2021/08/02 08:29:52;;;;;;;3.30;3.10;;;17.00;99.90;;;;;;492325;241;28891;-71
2021/08/02 08:31:53;;;;;;;2.70;2.60;;;17.00;99.90;;;;;;492316;241;28819;-69
2021/08/02 08:33:55;;;;;;;3.23;3.03;;;17.00;99.90;;;;;;492311;241;28877;-72
2021/08/02 08:35:56;;;;;;;3.53;3.20;;;16.90;99.90;;;;;;492270;241;28876;-72
2021/08/02 08:37:57;;;;;;;3.87;3.10;;;16.90;99.90;;;;;;492254;241;28791;-72
2021/08/02 08:39:58;;;;;;;3.70;3.10;;;16.90;99.90;;;;;;492304;241;28822;-72
2021/08/02 08:41:59;;;;;;;3.00;2.80;;;16.80;99.90;;;;;;492360;241;28761;-71
2021/08/02 08:44:01;;;;;;;3.90;3.43;;;16.80;99.90;;;;;;492319;241;29284;-71
2021/08/02 08:46:02;;;;;;;2.90;2.70;;;17.00;99.90;;;;;;492322;241;30019;-72
2021/08/02 08:48:03;;;;;;;3.10;2.90;;;17.10;99.90;;;;;;492296;241;29192;-71
2021/08/02 08:50:04;;;;;;;3.30;2.97;;;17.00;99.90;;;;;;492313;241;29308;-71
2021/08/02 08:52:06;;;;;;;3.60;3.30;;;17.20;99.90;;;;;;492301;241;28786;-71
2021/08/02 08:54:07;;;;;;;3.00;2.80;;;17.30;99.90;;;;;;492307;241;28859;-71
2021/08/02 08:56:08;;;;;;;2.77;2.57;;;17.50;99.90;;;;;;492282;241;28785;-70
2021/08/02 08:58:09;;;;;;;3.13;2.53;;;17.60;99.90;;;;;;492300;241;28786;-70
2021/08/02 09:00:11;;;;;;;2.63;2.33;;;17.40;99.90;;;;;;492327;241;28824;-71
2021/08/02 09:02:12;;;;;;;2.77;2.57;;;17.50;99.90;;;;;;492328;241;28885;-72
2021/08/02 09:04:13;;;;;;;2.60;2.50;;;17.70;99.90;;;;;;492322;241;28874;-71
2021/08/02 09:06:14;;;;;;;2.63;2.47;;;17.90;99.90;;;;;;492329;241;28698;-71
2021/08/02 09:08:17;;;;;;;2.63;2.43;;;18.10;99.90;;;;;;492329;241;29130;-72
2021/08/02 09:10:17;;;;;;;2.67;2.57;;;17.80;99.90;;;;;;492279;241;29301;-71
2021/08/02 09:12:19;;;;;;;3.10;2.80;;;17.60;99.90;;;;;;492336;241;29255;-70
2021/08/02 09:14:19;;;;;;;2.80;2.60;;;17.50;99.90;;;;;;492339;241;29275;-71
2021/08/02 09:16:21;;;;;;;2.23;2.13;;;17.50;99.90;;;;;;492298;241;28809;-72
2021/08/02 09:18:22;;;;;;;2.27;2.17;;;17.60;99.90;;;;;;492316;241;28778;-72
2021/08/02 09:20:23;;;;;;;2.20;2.10;;;17.80;99.90;;;;;;492254;241;28713;-71
2021/08/02 09:22:24;;;;;;;2.50;2.30;;;17.90;99.90;;;;;;492310;241;28804;-72
2021/08/02 09:24:26;;;;;;;2.63;2.43;;;17.90;99.90;;;;;;492296;241;28702;-71
2021/08/02 09:26:27;;;;;;;2.77;2.57;;;17.90;99.90;;;;;;492285;241;28694;-71
2021/08/02 09:28:28;;;;;;;2.70;2.50;;;17.60;99.90;;;;;;492294;240;28687;-72
2021/08/02 09:30:29;;;;;;;2.90;2.70;;;17.50;99.90;;;;;;492315;241;28830;-72
2021/08/02 09:32:31;;;;;;;2.50;2.30;;;17.30;99.90;;;;;;492309;241;28703;-71
2021/08/02 09:34:32;;;;;;;2.63;2.53;;;17.10;99.90;;;;;;492302;241;29354;-72
2021/08/02 09:36:33;;;;;;;2.73;2.53;;;17.10;99.90;;;;;;492316;241;29515;-71
2021/08/02 09:38:34;;;;;;;3.83;2.67;;;17.10;99.90;;;;;;492313;241;29225;-72
2021/08/02 09:40:36;;;;;;;2.60;2.40;;;17.30;99.90;;;;;;492310;241;28810;-72
2021/08/02 09:42:37;;;;;;;2.73;2.53;;;17.50;99.90;;;;;;492292;241;28773;-73
2021/08/02 09:44:38;;;;;;;2.87;2.67;;;17.80;99.90;;;;;;492298;241;28799;-70
2021/08/02 09:46:39;;;;;;;2.30;2.20;;;17.80;99.90;;;;;;492304;241;28799;-70
2021/08/02 09:48:41;;;;;;;2.20;2.10;;;17.90;99.90;;;;;;492303;241;28824;-70
2021/08/02 09:50:45;;;;;;;2.20;2.10;;;18.10;99.90;;;;;;492122;241;28876;-72
2021/08/02 09:52:43;;;;;;;2.37;2.17;;;18.20;99.90;;;;;;491946;241;28713;-72
2021/08/02 09:54:44;;;;;;;6.93;2.10;;;18.50;99.90;;;;;;492310;241;28721;-71
2021/08/02 09:56:49;;;;;;;2.10;2.00;;;18.60;99.90;;;;;;492329;241;29332;-72
2021/08/02 09:58:47;;;;;;;2.53;2.43;;;18.40;99.90;;;;;;492106;241;29239;-71
2021/08/02 10:00:48;;;;;;;2.90;2.47;;;18.30;99.90;;;;;;492176;241;29278;-71
2021/08/02 10:02:50;;;;;;;2.30;2.20;;;18.30;99.90;;;;;;492301;241;29254;-71
2021/08/02 10:04:51;;;;;;;3.13;2.40;;;18.60;99.90;;;;;;492287;241;28709;-71
2021/08/02 10:06:52;;;;;;;2.30;2.20;;;18.60;99.90;;;;;;492311;241;28757;-71
2021/08/02 10:08:53;;;;;;;2.27;2.17;;;18.70;99.90;;;;;;492302;241;28789;-71
2021/08/02 10:10:55;;;;;;;2.23;2.13;;;18.70;99.90;;;;;;492300;241;28909;-71
2021/08/02 10:12:56;;;;;;;2.33;2.20;;;18.50;99.90;;;;;;492298;241;28760;-71
2021/08/02 10:14:57;;;;;;;2.20;2.10;;;18.40;99.90;;;;;;492322;241;28941;-72
2021/08/02 10:16:58;;;;;;;2.00;1.90;;;18.30;99.90;;;;;;492325;241;28801;-71
2021/08/02 10:19:00;;;;;;;2.43;2.23;;;18.20;99.90;;;;;;492331;241;28875;-71
2021/08/02 10:21:01;;;;;;;2.77;2.30;;;18.30;99.90;;;;;;492349;241;28830;-71
2021/08/02 10:23:02;;;;;;;2.27;2.17;;;18.30;99.90;;;;;;492350;241;29253;-71
2021/08/02 10:25:03;;;;;;;2.23;2.13;;;18.50;99.90;;;;;;492349;241;29328;-71
2021/08/02 10:27:05;;;;;;;2.97;2.03;;;18.50;99.90;;;;;;492334;241;29391;-71
2021/08/02 10:29:09;;;;;;;2.40;2.20;;;18.60;99.90;;;;;;492346;241;28872;-71
2021/08/02 10:31:11;;;;;;;2.07;1.97;;;18.80;99.90;;;;;;492363;241;28801;-71